Flight Track Log - Related Links

Times and Time Zones

All times are in EST time to prevent confusion due to time zone crossing. See the EJA583 flight status page for this flight to view local times or setup timezone preferences in your user account.

Time Position Orientation Groundspeed Altitude Reporting Facility
EST Latitude Longitude Course Direction KTS MPH feet Rate Location/Type
Sat 08:13:13 PM 25.9089 -80.2683 88° East 156 180 700  Level Miami Center
Sat 08:13:43 PM 25.9097 -80.2431 88° East 196 226 2,000 3,247 Climbing Miami Center
Sat 08:14:38 PM 25.9214 -80.1878 77° East 219 252 5,300 2,409 Climbing Miami Center
Sat 08:15:50 PM 25.9894 -80.2267 333° Northwest 260 299 7,100 2,318 Climbing Miami Center
Sat 08:16:50 PM 26.0231 -80.3064 295° West 260 299 10,400 2,950 Climbing Miami Center
Sat 08:17:50 PM 26.0886 -80.3636 322° Northwest 272 313 13,000 2,550 Climbing Miami Center
Sat 08:18:50 PM 26.1669 -80.4008 337° Northwest 284 327 15,500 2,000 Climbing Miami Center
Sat 08:19:50 PM 26.2556 -80.4450 336° Northwest 307 353 17,000 750 Climbing Miami Center
Sat 08:20:50 PM 26.3447 -80.4803 340° North 327 376 17,000  Level Miami Center
Sat 08:21:50 PM 26.4336 -80.5178 339° North 333 383 17,000  Level Miami Center
Sat 08:22:50 PM 26.5244 -80.5531 341° North 339 390 17,000  Level Miami Center
Sat 08:23:50 PM 26.6156 -80.5883 341° North 339 390 17,000  Level Miami Center
Sat 08:24:50 PM 26.7044 -80.6239 340° North 339 390 17,000  Level Miami Center
Sat 08:25:50 PM 26.7892 -80.6544 342° North 351 404 17,000  Level Miami Center
Sat 08:26:50 PM 26.8822 -80.6900 341° North 351 404 17,000  Level Miami Center
Sat 08:27:50 PM 26.9814 -80.7306 340° North 344 396 17,000  Level Miami Center
Sat 08:28:50 PM 27.0744 -80.7664 341° North 344 396 17,000  Level Miami Center
Sat 08:29:50 PM 27.1653 -80.8019 341° North 344 396 17,000  Level Miami Center
Sat 08:30:50 PM 27.2478 -80.8353 340° North 344 396 17,000 -50 Level Miami Center
Sat 08:31:50 PM 27.3489 -80.8783 339° North 344 396 16,900 -300 Descending Miami Center
Sat 08:32:50 PM 27.4400 -80.9119 342° North 344 396 16,400 -1,000 Descending Miami Center
Sat 08:33:50 PM 27.5267 -80.9478 340° North 339 390 14,900 -1,450 Descending Miami Center
Sat 08:34:50 PM 27.6114 -80.9792 342° North 332 382 13,500 -1,500 Descending Miami Center
Sat 08:36:22 PM 27.7333 -81.0333 339° North 320 368 11,100 -1,551 Descending Orlando TRACON
Sat 08:37:17 PM 27.8167 -81.0667 341° North 306 352 9,700 -1,513 Descending Orlando TRACON
Sat 08:38:17 PM 27.9000 -81.1000 341° North 292 336 8,200 -816 Descending Orlando TRACON
Sat 08:39:22 PM 27.9667 -81.1333 336° Northwest 273 314 8,000 -571 Descending Orlando TRACON
Sat 08:40:23 PM 28.0333 -81.1833 326° Northwest 270 311 7,000 -992 Descending Orlando TRACON
Sat 08:41:23 PM 28.1000 -81.2333 327° Northwest 269 310 6,000 -1,000 Descending Orlando TRACON
Sat 08:42:23 PM 28.1667 -81.2667 336° Northwest 263 303 5,000 -1,200 Descending Orlando TRACON
Sat 08:43:23 PM 28.2167 -81.3000 330° Northwest 252 290 3,600 -1,263 Descending Orlando TRACON
Sat 08:44:17 PM 28.2833 -81.3167 348° North 198 228 2,600 -1,111 Descending Orlando TRACON
Sat 08:45:11 PM 28.3167 -81.3167 360° North 177 204 1,600 -773 Descending Orlando TRACON
Sat 08:46:29 PM 28.3833 -81.3333 348° North 142 163 900 -565 Descending Orlando TRACON
Sat 08:47:29 PM 28.4000 -81.3333 360° North 108 124 300 -600 Descending Orlando TRACON
Sat 08:49:00 PM 28.4294 -81.3090 North  Level Estimated
Sat 08:56:00 PM 28.4294 -81.3090 199° South  Level Estimated

Login

Don't have an account? Register now (free) for customized features, flight alerts, and more!